sensor_id;sensor_type;location;lat;lon;timestamp;P1;durP1;ratioP1;P2;durP2;ratioP2
6626;SDS011;3349;49.830;8.748;2023-08-21T00:00:30;9.82;;;8.13;;
6626;SDS011;3349;49.830;8.748;2023-08-21T00:02:56;9.65;;;8.50;;
6626;SDS011;3349;49.830;8.748;2023-08-21T00:05:23;9.98;;;7.90;;
6626;SDS011;3349;49.830;8.748;2023-08-21T00:07:50;13.27;;;8.30;;
6626;SDS011;3349;49.830;8.748;2023-08-21T00:10:16;10.45;;;8.10;;
6626;SDS011;3349;49.830;8.748;2023-08-21T00:12:44;15.35;;;8.77;;
6626;SDS011;3349;49.830;8.748;2023-08-21T00:15:11;12.32;;;8.32;;
6626;SDS011;3349;49.830;8.748;2023-08-21T00:17:38;13.00;;;8.38;;
6626;SDS011;3349;49.830;8.748;2023-08-21T00:20:05;11.68;;;8.43;;
6626;SDS011;3349;49.830;8.748;2023-08-21T00:22:34;12.48;;;8.20;;
6626;SDS011;3349;49.830;8.748;2023-08-21T00:25:01;9.70;;;8.70;;
6626;SDS011;3349;49.830;8.748;2023-08-21T00:27:27;11.50;;;8.38;;
6626;SDS011;3349;49.830;8.748;2023-08-21T00:29:55;11.70;;;8.30;;
6626;SDS011;3349;49.830;8.748;2023-08-21T00:32:23;10.48;;;8.05;;
6626;SDS011;3349;49.830;8.748;2023-08-21T00:34:50;9.27;;;8.10;;
6626;SDS011;3349;49.830;8.748;2023-08-21T00:37:16;10.13;;;8.25;;
6626;SDS011;3349;49.830;8.748;2023-08-21T00:39:44;9.00;;;7.63;;
6626;SDS011;3349;49.830;8.748;2023-08-21T00:42:11;9.27;;;7.85;;
6626;SDS011;3349;49.830;8.748;2023-08-21T00:44:38;9.45;;;8.50;;
6626;SDS011;3349;49.830;8.748;2023-08-21T00:47:06;10.25;;;8.48;;
6626;SDS011;3349;49.830;8.748;2023-08-21T00:49:33;11.80;;;8.48;;
6626;SDS011;3349;49.830;8.748;2023-08-21T00:52:00;9.27;;;8.05;;
6626;SDS011;3349;49.830;8.748;2023-08-21T00:54:27;13.13;;;8.65;;
6626;SDS011;3349;49.830;8.748;2023-08-21T00:56:55;9.93;;;8.27;;
6626;SDS011;3349;49.830;8.748;2023-08-21T00:59:22;15.18;;;8.38;;
6626;SDS011;3349;49.830;8.748;2023-08-21T01:01:49;15.15;;;8.60;;
6626;SDS011;3349;49.830;8.748;2023-08-21T01:04:17;10.00;;;8.77;;
6626;SDS011;3349;49.830;8.748;2023-08-21T01:06:44;10.27;;;8.20;;
6626;SDS011;3349;49.830;8.748;2023-08-21T01:09:12;9.68;;;7.95;;
6626;SDS011;3349;49.830;8.748;2023-08-21T01:11:46;9.23;;;8.30;;
6626;SDS011;3349;49.830;8.748;2023-08-21T01:14:17;14.00;;;8.20;;
6626;SDS011;3349;49.830;8.748;2023-08-21T01:16:52;13.23;;;8.57;;
6626;SDS011;3349;49.830;8.748;2023-08-21T01:19:26;13.13;;;8.65;;
6626;SDS011;3349;49.830;8.748;2023-08-21T01:22:00;12.30;;;8.10;;
6626;SDS011;3349;49.830;8.748;2023-08-21T01:24:29;10.23;;;7.63;;
6626;SDS011;3349;49.830;8.748;2023-08-21T01:26:55;10.05;;;7.85;;
6626;SDS011;3349;49.830;8.748;2023-08-21T01:29:22;12.48;;;8.48;;
6626;SDS011;3349;49.830;8.748;2023-08-21T01:31:50;10.23;;;7.93;;
6626;SDS011;3349;49.830;8.748;2023-08-21T01:34:22;12.30;;;8.43;;
6626;SDS011;3349;49.830;8.748;2023-08-21T01:36:50;9.77;;;8.15;;
6626;SDS011;3349;49.830;8.748;2023-08-21T01:39:17;12.55;;;8.27;;
6626;SDS011;3349;49.830;8.748;2023-08-21T01:41:46;9.80;;;8.52;;
6626;SDS011;3349;49.830;8.748;2023-08-21T01:44:12;14.18;;;8.63;;
6626;SDS011;3349;49.830;8.748;2023-08-21T01:46:39;12.48;;;8.45;;
6626;SDS011;3349;49.830;8.748;2023-08-21T01:49:06;12.20;;;8.05;;
6626;SDS011;3349;49.830;8.748;2023-08-21T01:51:32;11.18;;;8.68;;
6626;SDS011;3349;49.830;8.748;2023-08-21T01:53:59;10.02;;;7.55;;
6626;SDS011;3349;49.830;8.748;2023-08-21T01:56:26;10.10;;;9.00;;
6626;SDS011;3349;49.830;8.748;2023-08-21T01:58:54;15.32;;;9.18;;
6626;SDS011;3349;49.830;8.748;2023-08-21T02:01:20;11.20;;;8.35;;
6626;SDS011;3349;49.830;8.748;2023-08-21T02:03:48;13.35;;;8.88;;
6626;SDS011;3349;49.830;8.748;2023-08-21T02:06:14;10.68;;;8.70;;
6626;SDS011;3349;49.830;8.748;2023-08-21T02:08:41;12.18;;;8.90;;
6626;SDS011;3349;49.830;8.748;2023-08-21T02:11:08;11.13;;;8.75;;
6626;SDS011;3349;49.830;8.748;2023-08-21T02:13:34;13.68;;;9.82;;
6626;SDS011;3349;49.830;8.748;2023-08-21T02:16:03;10.75;;;8.80;;
6626;SDS011;3349;49.830;8.748;2023-08-21T02:18:29;14.32;;;8.23;;
6626;SDS011;3349;49.830;8.748;2023-08-21T02:20:56;9.70;;;8.35;;
6626;SDS011;3349;49.830;8.748;2023-08-21T02:23:23;11.25;;;8.48;;
6626;SDS011;3349;49.830;8.748;2023-08-21T02:25:50;13.65;;;8.50;;
6626;SDS011;3349;49.830;8.748;2023-08-21T02:28:16;11.00;;;8.35;;
6626;SDS011;3349;49.830;8.748;2023-08-21T02:30:43;11.68;;;8.65;;
6626;SDS011;3349;49.830;8.748;2023-08-21T02:33:12;10.32;;;8.75;;
6626;SDS011;3349;49.830;8.748;2023-08-21T02:35:39;12.68;;;9.18;;
6626;SDS011;3349;49.830;8.748;2023-08-21T02:38:05;10.07;;;8.65;;
6626;SDS011;3349;49.830;8.748;2023-08-21T02:40:32;12.77;;;9.02;;
6626;SDS011;3349;49.830;8.748;2023-08-21T02:42:59;11.55;;;8.48;;
6626;SDS011;3349;49.830;8.748;2023-08-21T02:45:25;11.00;;;8.93;;
6626;SDS011;3349;49.830;8.748;2023-08-21T02:47:52;10.75;;;8.93;;
6626;SDS011;3349;49.830;8.748;2023-08-21T02:50:20;10.07;;;8.90;;
6626;SDS011;3349;49.830;8.748;2023-08-21T02:52:47;16.98;;;9.07;;
6626;SDS011;3349;49.830;8.748;2023-08-21T02:55:13;16.48;;;9.13;;
6626;SDS011;3349;49.830;8.748;2023-08-21T02:57:40;9.90;;;8.90;;
6626;SDS011;3349;49.830;8.748;2023-08-21T03:00:07;10.48;;;8.85;;
6626;SDS011;3349;49.830;8.748;2023-08-21T03:02:36;10.10;;;8.55;;
6626;SDS011;3349;49.830;8.748;2023-08-21T03:05:03;12.18;;;8.63;;
6626;SDS011;3349;49.830;8.748;2023-08-21T03:07:31;10.82;;;9.10;;
6626;SDS011;3349;49.830;8.748;2023-08-21T03:09:58;10.10;;;8.57;;
6626;SDS011;3349;49.830;8.748;2023-08-21T03:12:24;12.00;;;8.68;;
6626;SDS011;3349;49.830;8.748;2023-08-21T03:14:51;11.98;;;9.27;;
6626;SDS011;3349;49.830;8.748;2023-08-21T03:17:18;11.07;;;9.38;;
6626;SDS011;3349;49.830;8.748;2023-08-21T03:19:44;13.68;;;8.68;;
6626;SDS011;3349;49.830;8.748;2023-08-21T03:22:11;9.73;;;8.70;;
6626;SDS011;3349;49.830;8.748;2023-08-21T03:24:40;9.68;;;8.73;;
6626;SDS011;3349;49.830;8.748;2023-08-21T03:27:07;13.80;;;9.32;;
6626;SDS011;3349;49.830;8.748;2023-08-21T03:29:33;11.52;;;8.98;;
6626;SDS011;3349;49.830;8.748;2023-08-21T03:32:00;11.38;;;9.00;;
6626;SDS011;3349;49.830;8.748;2023-08-21T03:34:26;12.30;;;9.30;;
6626;SDS011;3349;49.830;8.748;2023-08-21T03:36:53;15.40;;;9.63;;
6626;SDS011;3349;49.830;8.748;2023-08-21T03:39:20;11.70;;;10.50;;
6626;SDS011;3349;49.830;8.748;2023-08-21T03:41:48;11.18;;;9.43;;
6626;SDS011;3349;49.830;8.748;2023-08-21T03:44:14;15.15;;;9.70;;
6626;SDS011;3349;49.830;8.748;2023-08-21T03:46:41;13.80;;;9.75;;
6626;SDS011;3349;49.830;8.748;2023-08-21T03:49:08;12.60;;;9.25;;
6626;SDS011;3349;49.830;8.748;2023-08-21T03:51:34;10.45;;;9.43;;
6626;SDS011;3349;49.830;8.748;2023-08-21T03:54:01;11.70;;;9.88;;
6626;SDS011;3349;49.830;8.748;2023-08-21T03:56:28;12.85;;;9.80;;
6626;SDS011;3349;49.830;8.748;2023-08-21T03:58:56;13.35;;;9.23;;
6626;SDS011;3349;49.830;8.748;2023-08-21T04:01:23;11.30;;;9.95;;
6626;SDS011;3349;49.830;8.748;2023-08-21T04:03:49;17.35;;;9.90;;
6626;SDS011;3349;49.830;8.748;2023-08-21T04:06:16;14.65;;;9.60;;
6626;SDS011;3349;49.830;8.748;2023-08-21T04:08:43;14.82;;;10.38;;
6626;SDS011;3349;49.830;8.748;2023-08-21T04:11:09;12.65;;;10.15;;
6626;SDS011;3349;49.830;8.748;2023-08-21T04:13:36;13.60;;;9.50;;
6626;SDS011;3349;49.830;8.748;2023-08-21T04:16:04;10.35;;;9.30;;
6626;SDS011;3349;49.830;8.748;2023-08-21T04:18:31;11.98;;;10.07;;
6626;SDS011;3349;49.830;8.748;2023-08-21T04:20:57;11.73;;;9.77;;
6626;SDS011;3349;49.830;8.748;2023-08-21T04:23:24;12.32;;;10.38;;
6626;SDS011;3349;49.830;8.748;2023-08-21T04:25:51;11.55;;;10.32;;
6626;SDS011;3349;49.830;8.748;2023-08-21T04:28:17;13.25;;;11.48;;
6626;SDS011;3349;49.830;8.748;2023-08-21T04:30:44;13.20;;;11.07;;
6626;SDS011;3349;49.830;8.748;2023-08-21T04:33:12;15.18;;;11.40;;
6626;SDS011;3349;49.830;8.748;2023-08-21T04:35:39;12.35;;;11.02;;
6626;SDS011;3349;49.830;8.748;2023-08-21T04:38:05;17.88;;;11.18;;
6626;SDS011;3349;49.830;8.748;2023-08-21T04:40:33;11.90;;;9.77;;
6626;SDS011;3349;49.830;8.748;2023-08-21T04:42:59;12.50;;;9.73;;
6626;SDS011;3349;49.830;8.748;2023-08-21T04:45:26;15.80;;;9.82;;
6626;SDS011;3349;49.830;8.748;2023-08-21T04:47:53;11.43;;;10.23;;
6626;SDS011;3349;49.830;8.748;2023-08-21T04:50:21;12.10;;;9.80;;
6626;SDS011;3349;49.830;8.748;2023-08-21T04:52:47;10.73;;;9.60;;
6626;SDS011;3349;49.830;8.748;2023-08-21T04:55:15;11.07;;;9.93;;
6626;SDS011;3349;49.830;8.748;2023-08-21T04:57:42;11.45;;;10.10;;
6626;SDS011;3349;49.830;8.748;2023-08-21T05:00:09;11.25;;;9.77;;
6626;SDS011;3349;49.830;8.748;2023-08-21T05:02:36;11.23;;;9.88;;
6626;SDS011;3349;49.830;8.748;2023-08-21T05:05:03;11.93;;;9.43;;
6626;SDS011;3349;49.830;8.748;2023-08-21T05:07:32;12.00;;;10.35;;
6626;SDS011;3349;49.830;8.748;2023-08-21T05:09:59;14.55;;;10.20;;
6626;SDS011;3349;49.830;8.748;2023-08-21T05:12:26;11.13;;;10.07;;
6626;SDS011;3349;49.830;8.748;2023-08-21T05:14:53;13.88;;;10.38;;
6626;SDS011;3349;49.830;8.748;2023-08-21T05:17:20;11.93;;;10.02;;
6626;SDS011;3349;49.830;8.748;2023-08-21T05:19:46;13.43;;;10.98;;
6626;SDS011;3349;49.830;8.748;2023-08-21T05:22:13;15.93;;;11.80;;
6626;SDS011;3349;49.830;8.748;2023-08-21T05:24:41;15.50;;;11.18;;
6626;SDS011;3349;49.830;8.748;2023-08-21T05:27:08;15.13;;;10.68;;
6626;SDS011;3349;49.830;8.748;2023-08-21T05:29:34;14.02;;;11.63;;
6626;SDS011;3349;49.830;8.748;2023-08-21T05:32:01;12.40;;;11.10;;
6626;SDS011;3349;49.830;8.748;2023-08-21T05:34:28;13.52;;;11.55;;
6626;SDS011;3349;49.830;8.748;2023-08-21T05:36:55;13.45;;;11.80;;
6626;SDS011;3349;49.830;8.748;2023-08-21T05:39:21;14.77;;;11.63;;
6626;SDS011;3349;49.830;8.748;2023-08-21T05:41:49;14.32;;;11.50;;
6626;SDS011;3349;49.830;8.748;2023-08-21T05:44:17;16.27;;;11.38;;
6626;SDS011;3349;49.830;8.748;2023-08-21T05:46:44;13.75;;;10.60;;
6626;SDS011;3349;49.830;8.748;2023-08-21T05:49:10;13.75;;;11.40;;
6626;SDS011;3349;49.830;8.748;2023-08-21T05:51:37;12.63;;;11.32;;
6626;SDS011;3349;49.830;8.748;2023-08-21T05:54:04;13.95;;;12.60;;
6626;SDS011;3349;49.830;8.748;2023-08-21T05:56:31;17.02;;;13.98;;
6626;SDS011;3349;49.830;8.748;2023-08-21T05:58:59;14.43;;;12.98;;
6626;SDS011;3349;49.830;8.748;2023-08-21T06:01:25;15.45;;;13.77;;
6626;SDS011;3349;49.830;8.748;2023-08-21T06:03:52;16.48;;;14.68;;
6626;SDS011;3349;49.830;8.748;2023-08-21T06:06:19;16.77;;;15.07;;
6626;SDS011;3349;49.830;8.748;2023-08-21T06:08:46;18.35;;;16.52;;
6626;SDS011;3349;49.830;8.748;2023-08-21T06:11:13;17.40;;;14.57;;
6626;SDS011;3349;49.830;8.748;2023-08-21T06:13:40;16.85;;;15.10;;
6626;SDS011;3349;49.830;8.748;2023-08-21T06:16:08;16.98;;;15.10;;
6626;SDS011;3349;49.830;8.748;2023-08-21T06:18:35;16.45;;;14.57;;
6626;SDS011;3349;49.830;8.748;2023-08-21T06:21:02;16.67;;;15.02;;
6626;SDS011;3349;49.830;8.748;2023-08-21T06:23:28;16.95;;;15.25;;
6626;SDS011;3349;49.830;8.748;2023-08-21T06:25:55;17.63;;;14.55;;
6626;SDS011;3349;49.830;8.748;2023-08-21T06:28:22;16.73;;;15.05;;
6626;SDS011;3349;49.830;8.748;2023-08-21T06:30:54;17.17;;;15.40;;
6626;SDS011;3349;49.830;8.748;2023-08-21T06:33:23;18.08;;;15.13;;
6626;SDS011;3349;49.830;8.748;2023-08-21T06:35:50;20.73;;;15.95;;
6626;SDS011;3349;49.830;8.748;2023-08-21T06:38:17;16.27;;;14.35;;
6626;SDS011;3349;49.830;8.748;2023-08-21T06:40:44;17.17;;;15.07;;
6626;SDS011;3349;49.830;8.748;2023-08-21T06:43:11;19.63;;;16.13;;
6626;SDS011;3349;49.830;8.748;2023-08-21T06:45:37;16.48;;;13.85;;
6626;SDS011;3349;49.830;8.748;2023-08-21T06:48:05;17.23;;;15.45;;
6626;SDS011;3349;49.830;8.748;2023-08-21T06:50:33;17.05;;;14.55;;
6626;SDS011;3349;49.830;8.748;2023-08-21T06:52:59;18.08;;;15.82;;
6626;SDS011;3349;49.830;8.748;2023-08-21T06:55:26;17.17;;;14.38;;
6626;SDS011;3349;49.830;8.748;2023-08-21T06:57:53;15.98;;;14.32;;
6626;SDS011;3349;49.830;8.748;2023-08-21T07:00:19;17.85;;;15.80;;
6626;SDS011;3349;49.830;8.748;2023-08-21T07:02:46;16.75;;;15.00;;
6626;SDS011;3349;49.830;8.748;2023-08-21T07:05:13;17.48;;;15.73;;
6626;SDS011;3349;49.830;8.748;2023-08-21T07:07:41;17.17;;;15.52;;
6626;SDS011;3349;49.830;8.748;2023-08-21T07:10:08;17.55;;;14.85;;
6626;SDS011;3349;49.830;8.748;2023-08-21T07:12:35;17.05;;;15.27;;
6626;SDS011;3349;49.830;8.748;2023-08-21T07:15:02;18.35;;;15.60;;
6626;SDS011;3349;49.830;8.748;2023-08-21T07:17:29;20.40;;;16.45;;
6626;SDS011;3349;49.830;8.748;2023-08-21T07:19:55;16.70;;;15.10;;
6626;SDS011;3349;49.830;8.748;2023-08-21T07:22:22;15.65;;;13.80;;
6626;SDS011;3349;49.830;8.748;2023-08-21T07:24:50;15.38;;;13.77;;
6626;SDS011;3349;49.830;8.748;2023-08-21T07:27:18;16.42;;;13.88;;
6626;SDS011;3349;49.830;8.748;2023-08-21T07:29:45;16.33;;;12.75;;
6626;SDS011;3349;49.830;8.748;2023-08-21T07:32:11;14.70;;;13.00;;
6626;SDS011;3349;49.830;8.748;2023-08-21T07:34:38;13.27;;;12.05;;
6626;SDS011;3349;49.830;8.748;2023-08-21T07:37:07;13.95;;;12.55;;
6626;SDS011;3349;49.830;8.748;2023-08-21T07:39:33;15.68;;;12.38;;
6626;SDS011;3349;49.830;8.748;2023-08-21T07:42:01;14.43;;;12.07;;
6626;SDS011;3349;49.830;8.748;2023-08-21T07:44:28;17.15;;;14.80;;
6626;SDS011;3349;49.830;8.748;2023-08-21T07:46:55;13.95;;;12.65;;
6626;SDS011;3349;49.830;8.748;2023-08-21T07:49:22;12.65;;;10.50;;
6626;SDS011;3349;49.830;8.748;2023-08-21T07:51:48;13.73;;;11.32;;
6626;SDS011;3349;49.830;8.748;2023-08-21T07:54:15;13.02;;;11.82;;
6626;SDS011;3349;49.830;8.748;2023-08-21T07:56:41;12.57;;;11.48;;
6626;SDS011;3349;49.830;8.748;2023-08-21T07:59:09;15.13;;;11.82;;
6626;SDS011;3349;49.830;8.748;2023-08-21T08:01:36;14.45;;;10.93;;
6626;SDS011;3349;49.830;8.748;2023-08-21T08:04:03;12.57;;;11.38;;
6626;SDS011;3349;49.830;8.748;2023-08-21T08:06:31;12.50;;;11.27;;
6626;SDS011;3349;49.830;8.748;2023-08-21T08:08:57;11.60;;;10.25;;
6626;SDS011;3349;49.830;8.748;2023-08-21T08:11:24;11.25;;;10.15;;
6626;SDS011;3349;49.830;8.748;2023-08-21T08:13:51;11.82;;;10.73;;
6626;SDS011;3349;49.830;8.748;2023-08-21T08:16:19;14.73;;;11.05;;
6626;SDS011;3349;49.830;8.748;2023-08-21T08:18:45;12.88;;;11.32;;
6626;SDS011;3349;49.830;8.748;2023-08-21T08:21:12;11.30;;;10.30;;
6626;SDS011;3349;49.830;8.748;2023-08-21T08:23:39;11.32;;;10.32;;
6626;SDS011;3349;49.830;8.748;2023-08-21T08:26:05;11.50;;;10.40;;
6626;SDS011;3349;49.830;8.748;2023-08-21T08:28:33;11.57;;;10.52;;
6626;SDS011;3349;49.830;8.748;2023-08-21T08:31:00;11.93;;;10.73;;
6626;SDS011;3349;49.830;8.748;2023-08-21T08:33:29;12.73;;;10.88;;
6626;SDS011;3349;49.830;8.748;2023-08-21T08:35:56;11.57;;;10.38;;
6626;SDS011;3349;49.830;8.748;2023-08-21T08:38:22;11.77;;;10.68;;
6626;SDS011;3349;49.830;8.748;2023-08-21T08:40:49;11.52;;;10.35;;
6626;SDS011;3349;49.830;8.748;2023-08-21T08:43:19;11.85;;;10.68;;
6626;SDS011;3349;49.830;8.748;2023-08-21T08:45:47;11.50;;;10.40;;
6626;SDS011;3349;49.830;8.748;2023-08-21T08:48:16;11.80;;;10.70;;
6626;SDS011;3349;49.830;8.748;2023-08-21T08:50:46;12.27;;;10.48;;
6626;SDS011;3349;49.830;8.748;2023-08-21T08:53:14;11.35;;;10.15;;
6626;SDS011;3349;49.830;8.748;2023-08-21T08:55:42;10.80;;;9.70;;
6626;SDS011;3349;49.830;8.748;2023-08-21T08:58:09;11.65;;;9.85;;
6626;SDS011;3349;49.830;8.748;2023-08-21T09:00:35;17.48;;;10.10;;
6626;SDS011;3349;49.830;8.748;2023-08-21T09:03:03;11.30;;;10.10;;
6626;SDS011;3349;49.830;8.748;2023-08-21T09:05:30;10.30;;;9.40;;
6626;SDS011;3349;49.830;8.748;2023-08-21T09:08:08;10.55;;;9.45;;
6626;SDS011;3349;49.830;8.748;2023-08-21T09:10:36;10.75;;;9.75;;
6626;SDS011;3349;49.830;8.748;2023-08-21T09:13:08;10.70;;;9.32;;
6626;SDS011;3349;49.830;8.748;2023-08-21T09:15:35;10.88;;;9.23;;
6626;SDS011;3349;49.830;8.748;2023-08-21T09:18:02;9.38;;;8.55;;
6626;SDS011;3349;49.830;8.748;2023-08-21T09:20:34;11.10;;;10.00;;
6626;SDS011;3349;49.830;8.748;2023-08-21T09:23:01;11.48;;;10.02;;
6626;SDS011;3349;49.830;8.748;2023-08-21T09:25:30;13.27;;;9.93;;
6626;SDS011;3349;49.830;8.748;2023-08-21T09:28:00;11.48;;;9.35;;
6626;SDS011;3349;49.830;8.748;2023-08-21T09:30:31;10.98;;;9.40;;
6626;SDS011;3349;49.830;8.748;2023-08-21T09:33:10;10.10;;;9.30;;
6626;SDS011;3349;49.830;8.748;2023-08-21T09:35:36;9.45;;;8.60;;
6626;SDS011;3349;49.830;8.748;2023-08-21T09:38:04;9.88;;;8.98;;
6626;SDS011;3349;49.830;8.748;2023-08-21T09:40:33;9.43;;;8.48;;
6626;SDS011;3349;49.830;8.748;2023-08-21T09:42:59;9.98;;;9.07;;
6626;SDS011;3349;49.830;8.748;2023-08-21T09:45:29;9.75;;;8.80;;
6626;SDS011;3349;49.830;8.748;2023-08-21T09:47:57;9.65;;;8.75;;
6626;SDS011;3349;49.830;8.748;2023-08-21T09:50:24;9.43;;;8.73;;
6626;SDS011;3349;49.830;8.748;2023-08-21T09:52:52;9.57;;;8.32;;
6626;SDS011;3349;49.830;8.748;2023-08-21T09:55:19;9.63;;;8.90;;
6626;SDS011;3349;49.830;8.748;2023-08-21T09:57:49;9.88;;;8.77;;
6626;SDS011;3349;49.830;8.748;2023-08-21T10:00:23;9.55;;;8.75;;
6626;SDS011;3349;49.830;8.748;2023-08-21T10:02:50;9.52;;;8.77;;
6626;SDS011;3349;49.830;8.748;2023-08-21T10:05:18;9.23;;;8.38;;
6626;SDS011;3349;49.830;8.748;2023-08-21T10:07:45;9.07;;;8.38;;
6626;SDS011;3349;49.830;8.748;2023-08-21T10:10:14;9.80;;;8.23;;
6626;SDS011;3349;49.830;8.748;2023-08-21T10:12:41;9.93;;;8.93;;
6626;SDS011;3349;49.830;8.748;2023-08-21T10:15:09;9.07;;;8.32;;
6626;SDS011;3349;49.830;8.748;2023-08-21T10:17:37;9.10;;;8.30;;
6626;SDS011;3349;49.830;8.748;2023-08-21T10:20:04;8.95;;;8.10;;
6626;SDS011;3349;49.830;8.748;2023-08-21T10:22:38;9.15;;;8.23;;
6626;SDS011;3349;49.830;8.748;2023-08-21T10:25:17;8.70;;;8.00;;
6626;SDS011;3349;49.830;8.748;2023-08-21T10:27:48;9.00;;;8.30;;
6626;SDS011;3349;49.830;8.748;2023-08-21T10:30:21;9.68;;;8.75;;
6626;SDS011;3349;49.830;8.748;2023-08-21T10:32:49;9.93;;;9.13;;
6626;SDS011;3349;49.830;8.748;2023-08-21T10:35:18;8.82;;;8.02;;
6626;SDS011;3349;49.830;8.748;2023-08-21T10:38:05;8.68;;;7.93;;
6626;SDS011;3349;49.830;8.748;2023-08-21T10:40:33;8.00;;;7.40;;
6626;SDS011;3349;49.830;8.748;2023-08-21T10:43:00;9.20;;;8.40;;
6626;SDS011;3349;49.830;8.748;2023-08-21T10:45:29;8.15;;;7.35;;
6626;SDS011;3349;49.830;8.748;2023-08-21T10:47:56;9.45;;;7.80;;
6626;SDS011;3349;49.830;8.748;2023-08-21T10:50:23;8.40;;;7.60;;
6626;SDS011;3349;49.830;8.748;2023-08-21T10:52:51;7.00;;;6.50;;
6626;SDS011;3349;49.830;8.748;2023-08-21T10:55:18;7.32;;;6.68;;
6626;SDS011;3349;49.830;8.748;2023-08-21T10:57:46;7.15;;;6.45;;
6626;SDS011;3349;49.830;8.748;2023-08-21T11:00:14;7.20;;;6.68;;
6626;SDS011;3349;49.830;8.748;2023-08-21T11:02:44;6.78;;;6.25;;
6626;SDS011;3349;49.830;8.748;2023-08-21T11:05:12;7.13;;;6.53;;
6626;SDS011;3349;49.830;8.748;2023-08-21T11:07:41;7.18;;;6.68;;
6626;SDS011;3349;49.830;8.748;2023-08-21T11:10:10;6.45;;;5.95;;
6626;SDS011;3349;49.830;8.748;2023-08-21T11:12:38;6.80;;;6.20;;
6626;SDS011;3349;49.830;8.748;2023-08-21T11:15:13;7.38;;;6.80;;
6626;SDS011;3349;49.830;8.748;2023-08-21T11:17:41;8.30;;;7.55;;
6626;SDS011;3349;49.830;8.748;2023-08-21T11:20:09;8.10;;;7.47;;
6626;SDS011;3349;49.830;8.748;2023-08-21T11:22:36;8.35;;;7.75;;
6626;SDS011;3349;49.830;8.748;2023-08-21T11:25:03;8.93;;;8.10;;
6626;SDS011;3349;49.830;8.748;2023-08-21T11:27:31;7.85;;;7.15;;
6626;SDS011;3349;49.830;8.748;2023-08-21T11:29:57;7.82;;;7.13;;
6626;SDS011;3349;49.830;8.748;2023-08-21T11:32:26;7.40;;;6.90;;
6626;SDS011;3349;49.830;8.748;2023-08-21T11:34:53;7.13;;;6.63;;
6626;SDS011;3349;49.830;8.748;2023-08-21T11:37:22;7.63;;;7.03;;
6626;SDS011;3349;49.830;8.748;2023-08-21T11:39:50;9.48;;;6.72;;
6626;SDS011;3349;49.830;8.748;2023-08-21T11:42:18;7.25;;;6.65;;
6626;SDS011;3349;49.830;8.748;2023-08-21T11:44:47;7.45;;;6.85;;
6626;SDS011;3349;49.830;8.748;2023-08-21T11:47:16;6.75;;;6.20;;
6626;SDS011;3349;49.830;8.748;2023-08-21T11:49:44;7.50;;;6.90;;
6626;SDS011;3349;49.830;8.748;2023-08-21T11:52:14;7.22;;;6.53;;
6626;SDS011;3349;49.830;8.748;2023-08-21T11:54:47;7.78;;;7.15;;
6626;SDS011;3349;49.830;8.748;2023-08-21T11:57:14;6.88;;;6.28;;
6626;SDS011;3349;49.830;8.748;2023-08-21T11:59:41;8.00;;;7.40;;
6626;SDS011;3349;49.830;8.748;2023-08-21T12:02:14;7.65;;;7.13;;
6626;SDS011;3349;49.830;8.748;2023-08-21T12:04:44;7.35;;;6.68;;
6626;SDS011;3349;49.830;8.748;2023-08-21T12:07:11;7.65;;;6.85;;
6626;SDS011;3349;49.830;8.748;2023-08-21T12:09:38;7.07;;;6.57;;
6626;SDS011;3349;49.830;8.748;2023-08-21T12:12:07;7.50;;;6.90;;
6626;SDS011;3349;49.830;8.748;2023-08-21T12:14:33;6.95;;;6.40;;
6626;SDS011;3349;49.830;8.748;2023-08-21T12:17:04;7.05;;;6.55;;
6626;SDS011;3349;49.830;8.748;2023-08-21T12:19:31;7.22;;;6.60;;
6626;SDS011;3349;49.830;8.748;2023-08-21T12:21:57;7.30;;;6.60;;
6626;SDS011;3349;49.830;8.748;2023-08-21T12:24:24;7.43;;;6.90;;
6626;SDS011;3349;49.830;8.748;2023-08-21T12:26:51;7.40;;;6.78;;
6626;SDS011;3349;49.830;8.748;2023-08-21T12:29:19;8.25;;;7.55;;
6626;SDS011;3349;49.830;8.748;2023-08-21T12:31:46;6.93;;;6.43;;
6626;SDS011;3349;49.830;8.748;2023-08-21T12:34:13;7.20;;;6.63;;
6626;SDS011;3349;49.830;8.748;2023-08-21T12:36:39;7.35;;;6.75;;
6626;SDS011;3349;49.830;8.748;2023-08-21T12:39:06;9.68;;;7.15;;
6626;SDS011;3349;49.830;8.748;2023-08-21T12:41:34;7.80;;;7.22;;
6626;SDS011;3349;49.830;8.748;2023-08-21T12:44:01;8.02;;;7.22;;
6626;SDS011;3349;49.830;8.748;2023-08-21T12:46:30;7.88;;;7.25;;
6626;SDS011;3349;49.830;8.748;2023-08-21T12:48:56;7.30;;;6.80;;
6626;SDS011;3349;49.830;8.748;2023-08-21T12:51:24;8.27;;;7.57;;
6626;SDS011;3349;49.830;8.748;2023-08-21T12:53:51;6.97;;;6.47;;
6626;SDS011;3349;49.830;8.748;2023-08-21T12:56:17;6.47;;;6.07;;
6626;SDS011;3349;49.830;8.748;2023-08-21T12:58:45;5.55;;;5.25;;
6626;SDS011;3349;49.830;8.748;2023-08-21T13:01:12;6.25;;;5.72;;
6626;SDS011;3349;49.830;8.748;2023-08-21T13:03:43;5.78;;;5.38;;
6626;SDS011;3349;49.830;8.748;2023-08-21T13:06:11;5.50;;;5.13;;
6626;SDS011;3349;49.830;8.748;2023-08-21T13:08:37;5.57;;;5.07;;
6626;SDS011;3349;49.830;8.748;2023-08-21T13:11:04;5.70;;;4.60;;
6626;SDS011;3349;49.830;8.748;2023-08-21T13:13:31;5.10;;;4.50;;
6626;SDS011;3349;49.830;8.748;2023-08-21T13:15:57;4.82;;;4.32;;
6626;SDS011;3349;49.830;8.748;2023-08-21T13:18:25;4.25;;;3.95;;
6626;SDS011;3349;49.830;8.748;2023-08-21T13:20:53;5.22;;;3.50;;
6626;SDS011;3349;49.830;8.748;2023-08-21T13:23:20;4.72;;;3.70;;
6626;SDS011;3349;49.830;8.748;2023-08-21T13:25:47;5.43;;;3.58;;
6626;SDS011;3349;49.830;8.748;2023-08-21T13:28:14;3.45;;;3.15;;
6626;SDS011;3349;49.830;8.748;2023-08-21T13:30:40;5.75;;;3.00;;
6626;SDS011;3349;49.830;8.748;2023-08-21T13:33:07;3.10;;;2.88;;
6626;SDS011;3349;49.830;8.748;2023-08-21T13:35:34;3.13;;;2.83;;
6626;SDS011;3349;49.830;8.748;2023-08-21T13:38:02;2.80;;;2.60;;
6626;SDS011;3349;49.830;8.748;2023-08-21T13:40:31;3.25;;;2.53;;
6626;SDS011;3349;49.830;8.748;2023-08-21T13:42:57;2.97;;;2.67;;
6626;SDS011;3349;49.830;8.748;2023-08-21T13:45:25;3.50;;;2.60;;
6626;SDS011;3349;49.830;8.748;2023-08-21T13:47:52;2.90;;;2.70;;
6626;SDS011;3349;49.830;8.748;2023-08-21T13:50:19;3.67;;;2.50;;
6626;SDS011;3349;49.830;8.748;2023-08-21T13:52:46;2.42;;;2.22;;
6626;SDS011;3349;49.830;8.748;2023-08-21T13:55:14;2.85;;;2.45;;
6626;SDS011;3349;49.830;8.748;2023-08-21T13:57:42;3.85;;;2.40;;
6626;SDS011;3349;49.830;8.748;2023-08-21T14:00:09;3.33;;;2.47;;
6626;SDS011;3349;49.830;8.748;2023-08-21T14:02:37;2.67;;;2.42;;
6626;SDS011;3349;49.830;8.748;2023-08-21T14:05:05;3.53;;;2.50;;
6626;SDS011;3349;49.830;8.748;2023-08-21T14:07:32;3.00;;;2.60;;
6626;SDS011;3349;49.830;8.748;2023-08-21T14:09:59;4.10;;;2.50;;
6626;SDS011;3349;49.830;8.748;2023-08-21T14:12:28;3.30;;;2.80;;
6626;SDS011;3349;49.830;8.748;2023-08-21T14:14:55;2.90;;;2.40;;
6626;SDS011;3349;49.830;8.748;2023-08-21T14:17:22;3.42;;;2.40;;
6626;SDS011;3349;49.830;8.748;2023-08-21T14:19:49;2.95;;;2.65;;
6626;SDS011;3349;49.830;8.748;2023-08-21T14:22:16;5.72;;;2.50;;
6626;SDS011;3349;49.830;8.748;2023-08-21T14:24:42;2.83;;;2.40;;
6626;SDS011;3349;49.830;8.748;2023-08-21T14:27:09;2.97;;;2.78;;
6626;SDS011;3349;49.830;8.748;2023-08-21T14:29:37;2.92;;;2.45;;
6626;SDS011;3349;49.830;8.748;2023-08-21T14:32:04;4.15;;;2.30;;
6626;SDS011;3349;49.830;8.748;2023-08-21T14:34:31;3.38;;;2.80;;
6626;SDS011;3349;49.830;8.748;2023-08-21T14:36:57;2.60;;;2.40;;
6626;SDS011;3349;49.830;8.748;2023-08-21T14:39:24;2.70;;;2.50;;
6626;SDS011;3349;49.830;8.748;2023-08-21T14:41:54;4.55;;;2.60;;
6626;SDS011;3349;49.830;8.748;2023-08-21T14:44:22;2.60;;;2.40;;
6626;SDS011;3349;49.830;8.748;2023-08-21T14:46:51;3.17;;;2.67;;
6626;SDS011;3349;49.830;8.748;2023-08-21T14:49:19;2.90;;;2.60;;
6626;SDS011;3349;49.830;8.748;2023-08-21T14:51:45;2.50;;;2.30;;
6626;SDS011;3349;49.830;8.748;2023-08-21T14:54:12;3.45;;;2.78;;
6626;SDS011;3349;49.830;8.748;2023-08-21T14:56:39;2.85;;;2.40;;
6626;SDS011;3349;49.830;8.748;2023-08-21T14:59:05;5.00;;;2.63;;
6626;SDS011;3349;49.830;8.748;2023-08-21T15:01:35;3.67;;;2.53;;
6626;SDS011;3349;49.830;8.748;2023-08-21T15:04:04;2.65;;;2.40;;